Time;durP1;ratioP1;P1;durP2;ratioP2;P2;SDS_P1;SDS_P2;PMS_P1;PMS_P2;Temp;Humidity;BMP_temperature;BMP_pressure;BME280_temperature;BME280_humidity;BME280_pressure;Samples;Min_cycle;Max_cycle;Signal;HPM_P1;HPM_P2
2022/10/02 01:05:40;;;;;;;;;5.50;3.00;;;;;26.72;100.00;101647.25;4357991;32;51134;-46
2022/10/02 01:08:24;;;;;;;;;3.50;2.75;;;;;26.87;100.00;101640.03;5095615;27;51241;-45
2022/10/02 01:11:09;;;;;;;;;4.75;4.75;;;;;27.01;100.00;101639.22;5096166;27;51206;-47
2022/10/02 01:13:54;;;;;;;;;3.75;2.00;;;;;27.10;100.00;101644.13;5095534;27;51276;-47
2022/10/02 01:16:41;;;;;;;;;5.00;4.00;;;;;27.16;100.00;101634.69;5095326;27;51183;-45
2022/10/02 01:19:39;;;;;;;;;2.00;2.00;;;;;27.24;100.00;101636.97;5094147;27;51102;-49
2022/10/02 01:22:49;;;;;;;;;5.50;2.00;;;;;27.31;100.00;101633.75;5095935;27;51134;-46
2022/10/02 01:25:34;;;;;;;;;7.00;2.25;;;;;27.35;100.00;101632.59;5083064;27;51651;-46
2022/10/02 01:28:19;;;;;;;;;4.25;2.25;;;;;27.42;100.00;101629.50;5094912;27;51431;-47
2022/10/02 01:31:09;;;;;;;;;5.75;3.50;;;;;27.42;100.00;101616.72;5094136;27;51113;-46
2022/10/02 01:33:54;;;;;;;;;5.00;2.00;;;;;27.44;100.00;101612.09;5095385;27;51190;-49
2022/10/02 01:36:38;;;;;;;;;4.00;3.00;;;;;27.50;100.00;101619.03;5094647;27;51087;-45
2022/10/02 01:39:23;;;;;;;;;7.25;2.25;;;;;27.45;100.00;101608.38;5093876;27;51206;-46
2022/10/02 01:42:08;;;;;;;;;4.00;2.00;;;;;27.48;100.00;101610.03;5088613;27;51329;-45
2022/10/02 01:44:52;;;;;;;;;5.25;2.50;;;;;27.51;100.00;101615.31;5094154;27;51184;-49
2022/10/02 01:47:45;;;;;;;;;2.00;2.00;;;;;27.52;100.00;101612.47;5095734;27;51219;-47
2022/10/02 01:50:44;;;;;;;;;1.75;1.75;;;;;27.53;100.00;101605.16;5093953;27;51167;-48
2022/10/02 01:53:39;;;;;;;;;3.50;3.00;;;;;27.53;100.00;101599.69;5092792;27;51507;-47
2022/10/02 01:56:47;;;;;;;;;2.50;1.25;;;;;27.53;100.00;101597.84;5093331;27;51341;-46
2022/10/02 01:59:53;;;;;;;;;3.00;3.00;;;;;27.53;100.00;101594.22;5092101;27;51188;-45
2022/10/02 02:02:57;;;;;;;;;6.25;3.00;;;;;27.52;100.00;101593.34;5094297;27;51558;-46
2022/10/02 02:06:07;;;;;;;;;3.00;3.00;;;;;27.54;100.00;101609.66;5086009;27;51132;-48
2022/10/02 02:09:09;;;;;;;;;0.00;0.00;;;;;27.58;100.00;101618.53;5079057;27;51684;-47
2022/10/02 02:12:36;;;;;;;;;3.50;3.00;;;;;27.59;100.00;101614.81;5078214;27;51249;-48
2022/10/02 02:15:59;;;;;;;;;5.25;2.50;;;;;27.58;100.00;101613.97;5076332;27;51156;-47
2022/10/02 02:18:51;;;;;;;;;2.00;2.00;;;;;27.61;100.00;101619.25;5064328;27;51613;-49
2022/10/02 02:21:39;;;;;;;;;4.25;4.25;;;;;27.62;100.00;101620.97;5078382;27;51427;-48
2022/10/02 02:24:28;;;;;;;;;5.50;3.50;;;;;27.63;100.00;101616.41;5080434;27;51133;-44
2022/10/02 02:27:17;;;;;;;;;2.00;2.00;;;;;27.65;100.00;101628.13;5078096;27;51168;-47
2022/10/02 02:30:06;;;;;;;;;2.25;2.00;;;;;27.64;100.00;101623.63;5077819;27;51316;-48
2022/10/02 02:32:55;;;;;;;;;4.25;2.00;;;;;27.65;100.00;101620.78;5079391;27;51069;-46
2022/10/02 02:35:50;;;;;;;;;2.00;2.00;;;;;27.67;100.00;101605.19;5080440;27;51389;-48
2022/10/02 02:38:43;;;;;;;;;2.50;2.50;;;;;27.66;100.00;101610.75;5080648;27;51117;-45
2022/10/02 02:41:34;;;;;;;;;5.25;4.00;;;;;27.66;100.00;101608.03;5076614;27;51114;-46
2022/10/02 02:44:26;;;;;;;;;4.00;3.25;;;;;27.66;100.00;101605.28;5078831;27;51542;-47
2022/10/02 02:47:24;;;;;;;;;3.75;2.25;;;;;27.62;100.00;101599.09;5080555;27;51348;-46
2022/10/02 02:50:17;;;;;;;;;4.50;4.00;;;;;27.67;100.00;101596.13;5092678;27;51052;-45
2022/10/02 02:53:32;;;;;;;;;6.25;3.00;;;;;27.60;100.00;101586.50;5079129;27;51768;-47
2022/10/02 02:56:18;;;;;;;;;3.75;3.00;;;;;27.74;100.00;101596.56;5074864;27;51199;-45
2022/10/02 02:59:10;;;;;;;;;6.50;3.00;;;;;27.74;100.00;101597.47;5078591;27;51177;-48
2022/10/02 03:01:55;;;;;;;;;3.75;2.50;;;;;27.66;100.00;101584.28;5078968;27;51132;-45
2022/10/02 03:04:39;;;;;;;;;5.75;3.00;;;;;27.73;100.00;101595.72;5075778;27;51125;-45
2022/10/02 03:07:24;;;;;;;;;4.75;3.75;;;;;27.73;100.00;101601.19;5072876;27;51481;-47
2022/10/02 03:10:30;;;;;;;;;6.25;3.00;;;;;27.71;100.00;101594.06;5077956;27;51405;-47
2022/10/02 03:13:19;;;;;;;;;6.25;3.00;;;;;27.74;100.00;101596.56;5079290;27;51537;-48
2022/10/02 03:16:10;;;;;;;;;6.00;3.00;;;;;27.76;100.00;101609.19;5079315;27;51181;-45
2022/10/02 03:19:23;;;;;;;;;8.50;1.50;;;;;27.76;100.00;101609.19;5077147;27;51139;-44
2022/10/02 03:22:19;;;;;;;;;3.75;3.00;;;;;27.75;100.00;101603.81;5078541;27;51921;-46
2022/10/02 03:25:21;;;;;;;;;7.25;5.00;;;;;27.74;100.00;101600.22;5079210;27;51182;-47
2022/10/02 03:28:18;;;;;;;;;3.75;3.25;;;;;27.74;100.00;101607.50;5079159;27;51353;-45
2022/10/02 03:31:03;;;;;;;;;5.00;4.00;;;;;27.67;100.00;101604.31;5078116;27;51149;-47
2022/10/02 03:33:49;;;;;;;;;5.00;3.00;;;;;27.70;100.00;101608.69;5079165;27;51134;-47
2022/10/02 03:36:34;;;;;;;;;2.25;2.00;;;;;27.70;100.00;101601.38;5059665;27;51087;-44
2022/10/02 03:39:19;;;;;;;;;7.00;4.00;;;;;27.67;100.00;101602.44;5078563;27;51448;-46
2022/10/02 03:42:03;;;;;;;;;4.50;2.50;;;;;27.62;100.00;101595.50;5079291;27;51163;-47
2022/10/02 03:44:48;;;;;;;;;4.50;3.25;;;;;27.60;100.00;101595.63;5076960;27;51096;-48
2022/10/02 03:47:33;;;;;;;;;5.50;4.50;;;;;27.61;100.00;101605.56;5078563;27;51616;-46
2022/10/02 03:50:18;;;;;;;;;6.00;5.50;;;;;27.58;100.00;101591.19;5077739;27;51353;-46
2022/10/02 03:53:10;;;;;;;;;6.25;4.50;;;;;27.60;100.00;101600.19;5076950;27;51182;-45
2022/10/02 03:56:35;;;;;;;;;5.00;5.00;;;;;27.58;100.00;101603.03;5078585;27;51199;-47
2022/10/02 03:59:34;;;;;;;;;5.75;4.50;;;;;27.61;100.00;101619.25;5077885;27;51123;-44
2022/10/02 04:02:41;;;;;;;;;9.25;5.75;;;;;27.55;100.00;101603.19;5077853;27;51495;-47
2022/10/02 04:05:40;;;;;;;;;6.50;4.00;;;;;27.58;100.00;101600.28;5076923;27;51061;-47
2022/10/02 04:08:32;;;;;;;;;6.75;6.25;;;;;27.59;100.00;101599.31;5077771;27;51144;-48
2022/10/02 04:11:52;;;;;;;;;8.75;6.00;;;;;27.60;100.00;101612.00;5076223;27;51195;-44
2022/10/02 04:14:50;;;;;;;;;4.00;3.00;;;;;27.59;100.00;101609.34;5070346;27;51729;-46
2022/10/02 04:17:43;;;;;;;;;6.75;2.00;;;;;27.58;100.00;101603.03;5076173;27;51248;-46
2022/10/02 04:20:34;;;;;;;;;5.00;4.75;;;;;27.59;100.00;101606.63;5061673;27;51538;-45
2022/10/02 04:23:34;;;;;;;;;8.00;6.75;;;;;27.60;100.00;101616.59;5078571;27;51222;-45
2022/10/02 04:26:18;;;;;;;;;8.25;4.75;;;;;27.62;100.00;101615.50;5078945;27;51107;-45
2022/10/02 04:29:25;;;;;;;;;6.25;3.25;;;;;27.58;100.00;101618.53;5078831;27;51097;-46
2022/10/02 04:32:13;;;;;;;;;7.50;4.25;;;;;27.59;100.00;101615.72;5077197;27;51448;-45
2022/10/02 04:34:58;;;;;;;;;11.50;5.00;;;;;27.56;100.00;101617.78;5070513;27;51933;-45
2022/10/02 04:38:03;;;;;;;;;7.00;6.00;;;;;27.56;100.00;101632.31;5078114;27;51118;-45
2022/10/02 04:41:29;;;;;;;;;8.25;5.25;;;;;27.56;100.00;101628.69;5071204;27;51564;-46
2022/10/02 04:44:42;;;;;;;;;6.00;6.00;;;;;27.56;100.00;101634.16;5077813;27;51105;-45
2022/10/02 04:47:48;;;;;;;;;9.25;6.50;;;;;27.57;100.00;101636.81;5077613;27;51371;-45
2022/10/02 04:50:33;;;;;;;;;8.00;7.25;;;;;27.55;100.00;101637.88;5076909;27;51151;-46
2022/10/02 04:53:56;;;;;;;;;10.00;9.75;;;;;27.55;100.00;101632.41;5076872;27;51200;-49
2022/10/02 04:57:02;;;;;;;;;10.00;7.50;;;;;27.54;100.00;101634.25;5076769;27;51203;-45
2022/10/02 04:59:53;;;;;;;;;9.00;6.00;;;;;27.55;100.00;101632.41;5079396;28;51286;-45
2022/10/02 05:03:15;;;;;;;;;5.50;4.00;;;;;27.53;100.00;101629.75;5078192;27;51203;-49
2022/10/02 05:06:28;;;;;;;;;8.50;5.50;;;;;27.52;100.00;101641.66;5077384;27;51142;-46
2022/10/02 05:09:27;;;;;;;;;9.50;5.75;;;;;27.46;100.00;101629.25;5070504;27;51130;-45
2022/10/02 05:12:24;;;;;;;;;4.50;4.50;;;;;27.46;100.00;101636.56;5074403;27;51695;-44
2022/10/02 05:15:12;;;;;;;;;4.50;3.75;;;;;27.48;100.00;101640.97;5078747;27;51127;-46
2022/10/02 05:18:28;;;;;;;;;6.25;5.00;;;;;27.52;100.00;101637.09;5077489;27;51161;-48
2022/10/02 05:21:22;;;;;;;;;5.25;5.25;;;;;27.53;100.00;101647.03;5069246;27;51149;-44
2022/10/02 05:24:38;;;;;;;;;5.75;4.00;;;;;27.51;100.00;101645.38;5078358;27;51526;-47
2022/10/02 05:27:38;;;;;;;;;6.50;3.75;;;;;27.56;100.00;101656.91;5074400;27;51148;-46
2022/10/02 05:30:23;;;;;;;;;13.25;10.00;;;;;27.51;100.00;101657.19;5074508;27;51185;-46
2022/10/02 05:33:21;;;;;;;;;5.50;5.50;;;;;27.52;100.00;101655.31;5078687;27;51005;-47
2022/10/02 05:36:24;;;;;;;;;5.75;5.00;;;;;27.50;100.00;101654.56;5073804;27;51440;-45
2022/10/02 05:39:23;;;;;;;;;6.75;4.50;;;;;27.50;100.00;101666.34;5072879;27;51154;-45
2022/10/02 05:42:18;;;;;;;;;7.50;6.75;;;;;27.49;100.00;101666.47;5080251;27;51347;-46
2022/10/02 05:45:11;;;;;;;;;8.25;4.00;;;;;27.57;100.00;101675.06;5082181;27;51176;-45
2022/10/02 05:48:04;;;;;;;;;7.50;3.50;;;;;27.56;100.00;101670.56;5081245;27;51080;-48
2022/10/02 05:50:54;;;;;;;;;5.75;4.00;;;;;27.61;100.00;101675.75;5079611;27;51419;-44
2022/10/02 05:53:48;;;;;;;;;6.00;6.00;;;;;27.75;100.00;101681.28;5080816;27;52005;-47
2022/10/02 05:56:40;;;;;;;;;5.00;4.00;;;;;28.03;100.00;101678.69;5081867;27;51254;-45
2022/10/02 05:59:47;;;;;;;;;10.00;6.00;;;;;28.30;100.00;101674.19;5079657;27;51204;-47
2022/10/02 06:02:37;;;;;;;;;6.00;6.00;;;;;28.39;100.00;101669.09;5072582;27;51175;-48
2022/10/02 06:05:54;;;;;;;;;8.75;7.00;;;;;28.35;100.00;101667.56;5079541;27;51227;-48
2022/10/02 06:08:52;;;;;;;;;23.50;18.25;;;;;28.29;100.00;101674.31;5080796;27;51338;-46
2022/10/02 06:11:48;;;;;;;;;27.50;24.00;;;;;28.26;100.00;101685.44;5077490;27;51206;-45
2022/10/02 06:14:54;;;;;;;;;16.00;11.00;;;;;28.25;100.00;101698.25;5080766;27;51183;-49
2022/10/02 06:17:49;;;;;;;;;18.50;13.75;;;;;28.29;100.00;101707.16;5077574;27;51071;-46
2022/10/02 06:20:55;;;;;;;;;17.25;12.00;;;;;28.37;100.00;101715.75;5079522;27;51933;-48
2022/10/02 06:23:44;;;;;;;;;50.50;38.00;;;;;28.36;100.00;101707.66;5079042;27;51152;-46
2022/10/02 06:26:40;;;;;;;;;17.50;14.25;;;;;28.54;100.00;101730.19;5076575;27;51160;-48
2022/10/02 06:29:32;;;;;;;;;22.75;15.50;;;;;28.81;100.00;101713.00;5080771;27;51503;-47
2022/10/02 06:32:56;;;;;;;;;27.00;22.75;;;;;29.79;100.00;101724.69;5073646;27;51148;-46
2022/10/02 06:35:59;;;;;;;;;11.25;7.50;;;;;31.55;100.00;101706.47;5072649;27;51379;-47
2022/10/02 06:39:01;;;;;;;;;5.00;4.25;;;;;33.05;100.00;101686.19;5079666;27;51244;-48
2022/10/02 06:42:04;;;;;;;;;9.50;5.25;;;;;33.70;100.00;101694.47;5081122;27;51172;-45
2022/10/02 06:45:13;;;;;;;;;7.25;6.00;;;;;34.05;100.00;101689.63;5077442;27;51176;-46
2022/10/02 06:48:16;;;;;;;;;12.00;12.00;;;;;34.35;100.00;101688.75;5080514;27;51571;-45
2022/10/02 06:51:44;;;;;;;;;18.75;17.25;;;;;34.58;100.00;101691.34;5078912;27;51143;-45
2022/10/02 06:54:45;;;;;;;;;17.75;13.00;;;;;34.43;100.00;101694.47;5081076;27;51092;-47
2022/10/02 06:57:42;;;;;;;;;30.50;27.00;;;;;34.18;100.00;101711.50;5074326;27;51453;-44
2022/10/02 07:00:26;;;;;;;;;21.75;17.50;;;;;34.08;100.00;101716.97;5073083;27;51147;-47
2022/10/02 07:03:26;;;;;;;;;28.50;26.75;;;;;35.24;100.00;101714.75;5077232;27;51096;-46
2022/10/02 07:06:26;;;;;;;;;46.25;37.75;;;;;35.26;100.00;101706.34;5079158;27;51394;-48
2022/10/02 07:09:35;;;;;;;;;28.75;21.75;;;;;35.09;100.00;101722.63;5078580;27;51175;-47
2022/10/02 07:12:39;;;;;;;;;25.00;21.50;;;;;37.11;100.00;101712.41;5076491;27;51162;-45
2022/10/02 07:15:56;;;;;;;;;24.25;24.00;;;;;38.18;100.00;101706.03;5079444;27;51250;-48
2022/10/02 07:18:59;;;;;;;;;18.25;14.50;;;;;37.72;100.00;101707.06;5073498;27;52545;-48
2022/10/02 07:22:02;;;;;;;;;14.75;12.75;;;;;36.73;100.00;101718.00;5078962;27;51029;-48
2022/10/02 07:25:17;;;;;;;;;13.00;10.00;;;;;35.84;100.00;101733.16;5080201;27;51572;-46
2022/10/02 07:28:01;;;;;;;;;13.75;11.50;;;;;35.03;100.00;101757.25;5078463;27;51179;-46
2022/10/02 07:31:23;;;;;;;;;14.50;13.50;;;;;34.38;100.00;101767.72;5074166;27;51208;-48
2022/10/02 07:34:18;;;;;;;;;21.50;20.75;;;;;33.89;100.00;101789.47;5078455;27;51081;-47
2022/10/02 07:37:15;;;;;;;;;19.25;15.00;;;;;33.45;100.00;101797.78;5079649;27;51105;-47
2022/10/02 07:40:12;;;;;;;;;17.50;14.75;;;;;33.02;100.00;101802.22;5074513;27;51089;-48
2022/10/02 07:43:05;;;;;;;;;17.25;14.75;;;;;32.58;100.00;101807.59;5077428;27;51463;-46
2022/10/02 07:46:15;;;;;;;;;23.00;16.75;;;;;32.08;100.00;101814.25;5077809;27;51239;-47
2022/10/02 07:49:17;;;;;;;;;23.75;20.00;;;;;31.76;100.00;101836.00;5077583;27;51324;-47
2022/10/02 07:52:23;;;;;;;;;19.25;18.25;;;;;31.45;100.00;101839.19;5075323;27;51522;-47
2022/10/02 07:55:18;;;;;;;;;24.00;23.25;;;;;31.25;100.00;101842.56;5078438;27;51128;-44
2022/10/02 07:58:08;;;;;;;;;20.00;19.25;;;;;31.10;100.00;101859.16;5078573;27;51146;-49
2022/10/02 08:01:02;;;;;;;;;25.25;24.75;;;;;30.99;100.00;101854.47;5076761;27;51439;-47
2022/10/02 08:04:10;;;;;;;;;26.25;21.25;;;;;30.86;100.00;101848.09;5060996;27;51059;-47
2022/10/02 08:07:00;;;;;;;;;22.75;18.75;;;;;30.84;100.00;101861.97;5072006;27;51168;-45
2022/10/02 08:09:48;;;;;;;;;19.50;17.00;;;;;30.90;100.00;101857.91;5077838;27;51286;-46
2022/10/02 08:12:44;;;;;;;;;19.75;16.75;;;;;31.00;100.00;101866.31;5075887;27;51160;-47
2022/10/02 08:15:34;;;;;;;;;15.50;15.25;;;;;31.11;100.00;101873.81;5077579;27;51107;-47
2022/10/02 08:18:37;;;;;;;;;24.75;22.25;;;;;31.11;100.00;101865.56;5075439;27;51053;-45
2022/10/02 08:21:23;;;;;;;;;17.75;17.75;;;;;30.92;100.00;101867.78;5080859;27;51223;-45
2022/10/02 08:24:21;;;;;;;;;13.50;12.75;;;;;30.88;100.00;101881.84;5082991;27;51495;-47
2022/10/02 08:27:14;;;;;;;;;16.75;14.75;;;;;30.76;100.00;101889.09;5078766;27;51164;-47
2022/10/02 08:30:03;;;;;;;;;20.75;15.75;;;;;30.65;100.00;101895.38;5074424;27;51360;-38
2022/10/02 08:32:47;;;;;;;;;15.25;14.50;;;;;30.54;100.00;101887.88;5078490;27;51618;-38
2022/10/02 08:35:39;;;;;;;;;14.25;12.25;;;;;30.45;100.00;101896.72;5079500;27;51081;-38
2022/10/02 08:38:27;;;;;;;;;15.50;14.25;;;;;30.32;100.00;101891.22;5076298;27;51484;-39
2022/10/02 08:41:34;;;;;;;;;16.50;14.75;;;;;30.19;100.00;101906.78;5079461;27;51080;-38
2022/10/02 08:44:24;;;;;;;;;15.00;13.00;;;;;30.10;100.00;101895.44;5078789;27;51190;-38
2022/10/02 08:47:21;;;;;;;;;16.00;13.00;;;;;30.04;100.00;101900.47;5074308;27;51227;-38
2022/10/02 08:50:37;;;;;;;;;15.00;15.00;;;;;29.96;100.00;101901.88;5079235;27;51363;-38
2022/10/02 08:53:35;;;;;;;;;8.25;7.00;;;;;29.86;100.00;101906.19;5070054;27;51165;-38
2022/10/02 08:56:37;;;;;;;;;10.00;10.00;;;;;29.71;100.00;101905.38;5078329;28;51401;-38
2022/10/02 08:59:54;;;;;;;;;17.75;17.75;;;;;29.66;100.00;101918.50;5079355;28;51207;-39
2022/10/02 09:02:59;;;;;;;;;15.00;10.00;;;;;29.62;100.00;101923.31;5079526;28;51377;-38
2022/10/02 09:06:04;;;;;;;;;10.25;6.00;;;;;29.59;100.00;101919.88;5079176;28;51195;-39
2022/10/02 09:08:59;;;;;;;;;4.75;4.75;;;;;29.60;100.00;101924.41;5079650;28;51060;-39
2022/10/02 09:12:10;;;;;;;;;9.00;8.00;;;;;29.73;100.00;101918.97;5077310;28;51454;-40
2022/10/02 09:15:08;;;;;;;;;10.00;7.75;;;;;29.72;100.00;101920.84;5079799;27;51182;-39
2022/10/02 09:18:28;;;;;;;;;18.00;13.25;;;;;29.74;100.00;101920.72;5081949;27;51053;-38
2022/10/02 09:21:48;;;;;;;;;11.75;10.00;;;;;29.96;100.00;101921.09;5082590;27;51187;-38
2022/10/02 09:24:58;;;;;;;;;11.75;10.50;;;;;30.17;100.00;101917.88;5068541;27;51160;-39
2022/10/02 09:28:03;;;;;;;;;9.75;9.25;;;;;30.28;100.00;101912.50;5082208;27;51732;-39
2022/10/02 09:31:25;;;;;;;;;10.50;9.50;;;;;30.39;100.00;101906.25;5080089;27;51316;-39
2022/10/02 09:34:42;;;;;;;;;12.75;9.50;;;;;30.44;100.00;101901.34;5082399;27;51153;-39
2022/10/02 09:37:58;;;;;;;;;8.50;8.50;;;;;30.30;100.00;101905.06;5081333;27;51096;-39
2022/10/02 09:41:19;;;;;;;;;9.50;7.75;;;;;30.08;100.00;101907.53;5082958;27;51554;-38
2022/10/02 09:44:38;;;;;;;;;10.50;8.25;;;;;29.83;100.00;101910.03;5079787;27;51238;-39
2022/10/02 09:47:41;;;;;;;;;6.50;6.50;;;;;29.57;100.00;101924.59;5080019;27;51503;-39
2022/10/02 09:50:36;;;;;;;;;10.00;6.00;;;;;29.34;100.00;101916.00;5083331;27;51120;-38
2022/10/02 09:53:52;;;;;;;;;5.50;5.50;;;;;29.16;100.00;101920.75;5080662;27;51512;-38
2022/10/02 09:56:59;;;;;;;;;8.25;4.25;;;;;29.02;100.00;101925.28;5080990;27;51403;-38
2022/10/02 10:00:16;;;;;;;;;6.50;5.75;;;;;28.83;100.00;101917.34;5081954;27;51469;-38
2022/10/02 10:03:37;;;;;;;;;7.00;5.00;;;;;28.66;100.00;101922.97;5080640;27;51204;-38
2022/10/02 10:06:47;;;;;;;;;10.75;9.00;;;;;28.54;100.00;101925.47;5082932;27;51205;-39
2022/10/02 10:09:47;;;;;;;;;9.25;7.50;;;;;28.48;100.00;101916.75;5081298;27;51456;-38
2022/10/02 10:12:31;;;;;;;;;13.50;7.50;;;;;28.45;100.00;101923.31;5074201;27;51034;-39
2022/10/02 10:15:47;;;;;;;;;8.25;6.75;;;;;28.49;100.00;101915.78;5082700;27;51166;-38
2022/10/02 10:19:21;;;;;;;;;4.50;4.00;;;;;28.54;100.00;101908.16;5081411;27;51240;-39
2022/10/02 10:22:43;;;;;;;;;5.00;4.50;;;;;28.59;100.00;101898.69;5059628;27;51186;-39
2022/10/02 10:26:11;;;;;;;;;8.25;5.50;;;;;28.60;100.00;101886.75;5082194;27;51212;-38
2022/10/02 10:29:08;;;;;;;;;7.75;5.75;;;;;28.64;100.00;101881.09;5080221;27;51189;-39
2022/10/02 10:31:53;;;;;;;;;12.25;8.50;;;;;28.64;100.00;101875.63;5082306;27;51171;-38
2022/10/02 10:35:06;;;;;;;;;10.25;5.75;;;;;28.64;100.00;101870.16;5081337;27;51165;-38
2022/10/02 10:38:33;;;;;;;;;7.75;6.00;;;;;28.58;100.00;101855.84;5076891;27;51132;-38
2022/10/02 10:41:56;;;;;;;;;10.75;6.75;;;;;28.51;100.00;101853.63;5080247;27;51192;-38
2022/10/02 10:44:58;;;;;;;;;8.75;5.75;;;;;28.44;100.00;101844.91;5073245;27;53638;-38
2022/10/02 10:48:20;;;;;;;;;7.25;4.00;;;;;28.32;100.00;101843.78;5075555;27;51107;-38
2022/10/02 10:51:17;;;;;;;;;5.25;4.00;;;;;28.27;100.00;101829.50;5078947;27;51517;-38
2022/10/02 10:54:10;;;;;;;;;5.50;4.00;;;;;28.34;100.00;101836.34;5080657;27;51233;-39
2022/10/02 10:57:07;;;;;;;;;5.50;4.25;;;;;28.40;100.00;101835.09;5081814;27;51117;-38
2022/10/02 11:00:13;;;;;;;;;4.00;2.50;;;;;28.46;100.00;101826.53;5081336;27;51069;-38
2022/10/02 11:03:28;;;;;;;;;10.75;7.25;;;;;28.51;100.00;101827.09;5076148;27;51191;-38
2022/10/02 11:06:15;;;;;;;;;8.25;6.25;;;;;28.55;100.00;101804.03;5075350;27;51556;-38
2022/10/02 11:09:22;;;;;;;;;9.75;6.00;;;;;28.59;100.00;101807.47;5083107;27;51053;-39
2022/10/02 11:12:40;;;;;;;;;7.50;6.00;;;;;28.62;100.00;101801.81;5080171;27;51513;-38
2022/10/02 11:15:39;;;;;;;;;8.00;6.00;;;;;28.64;100.00;101799.81;5074178;27;51167;-39
2022/10/02 11:18:39;;;;;;;;;8.75;5.25;;;;;28.66;100.00;101792.38;5077985;27;51271;-39
2022/10/02 11:21:38;;;;;;;;;7.50;7.00;;;;;28.71;100.00;101792.09;5078519;27;51194;-39
2022/10/02 11:24:42;;;;;;;;;9.25;7.25;;;;;28.71;100.00;101795.75;5074106;27;51151;-38
2022/10/02 11:27:42;;;;;;;;;9.00;7.00;;;;;28.71;100.00;101798.50;5078441;27;51194;-39
2022/10/02 11:30:53;;;;;;;;;6.75;6.00;;;;;28.65;100.00;101787.88;5072133;27;51145;-38
2022/10/02 11:33:53;;;;;;;;;6.75;6.00;;;;;28.58;100.00;101781.91;5073692;27;51064;-38
2022/10/02 11:36:55;;;;;;;;;6.00;5.25;;;;;28.54;100.00;101771.25;5080485;27;51195;-38
2022/10/02 11:39:54;;;;;;;;;6.25;4.75;;;;;28.54;100.00;101768.53;5079951;27;51160;-39
2022/10/02 11:43:33;;;;;;;;;9.75;8.00;;;;;28.38;100.00;101753.09;5075331;27;51645;-39
2022/10/02 11:46:21;;;;;;;;;8.00;6.75;;;;;28.21;100.00;101758.72;5032129;28;52595;-39
2022/10/02 11:49:12;;;;;;;;;5.00;4.00;;;;;28.10;100.00;101762.16;5066405;27;51238;-39
2022/10/02 11:52:27;;;;;;;;;5.50;5.00;;;;;28.03;100.00;101756.13;5079460;27;51234;-39
2022/10/02 11:55:28;;;;;;;;;8.50;6.00;;;;;27.97;100.00;101740.97;5075129;27;51209;-39
2022/10/02 11:58:44;;;;;;;;;3.25;3.25;;;;;28.07;100.00;101744.03;5077918;27;51166;-38
2022/10/02 12:01:53;;;;;;;;;7.00;4.00;;;;;28.17;100.00;101733.41;5074119;27;51161;-38
2022/10/02 12:05:12;;;;;;;;;5.75;4.75;;;;;28.29;100.00;101732.66;5078357;27;51172;-39
2022/10/02 12:08:23;;;;;;;;;7.25;2.75;;;;;28.51;100.00;101734.03;5079827;27;51005;-39
2022/10/02 12:11:48;;;;;;;;;6.25;4.25;;;;;28.68;100.00;101738.41;5070623;27;52678;-38
2022/10/02 12:14:54;;;;;;;;;10.25;8.75;;;;;28.76;100.00;101727.00;5078415;27;51400;-39
2022/10/02 12:17:54;;;;;;;;;38.00;29.50;;;;;28.83;100.00;101728.34;5079659;27;51104;-38
2022/10/02 12:26:57;;;;;;;;;8.00;7.00;;;;;29.23;100.00;101724.81;5076466;27;51236;-38
2022/10/02 12:28:01;;;;;;;;;9.50;7.00;;;;;29.52;100.00;101717.38;5076814;27;51176;-39
2022/10/02 12:31:19;;;;;;;;;14.00;10.50;;;;;29.83;100.00;101712.53;5074321;27;51112;-38
2022/10/02 12:34:25;;;;;;;;;7.25;6.75;;;;;30.10;100.00;101703.34;5078038;27;51174;-39
2022/10/02 12:37:26;;;;;;;;;6.75;5.25;;;;;30.25;100.00;101689.50;5075433;27;52140;-39
2022/10/02 12:40:22;;;;;;;;;6.75;6.25;;;;;30.37;100.00;101677.59;5079288;27;51194;-39
2022/10/02 12:43:18;;;;;;;;;5.00;4.00;;;;;30.52;100.00;101664.63;5078708;27;51356;-38
2022/10/02 12:46:17;;;;;;;;;5.50;3.75;;;;;30.81;100.00;101649.72;5078789;27;51172;-37
2022/10/02 12:49:18;;;;;;;;;7.50;4.50;;;;;31.12;100.00;101639.19;5077407;27;51808;-39
2022/10/02 12:52:26;;;;;;;;;7.25;4.25;;;;;31.37;100.00;101624.41;5077908;27;51025;-39
2022/10/02 12:55:48;;;;;;;;;7.75;5.00;;;;;31.73;100.00;101606.00;5078989;28;51088;-39
2022/10/02 12:58:45;;;;;;;;;8.50;5.00;;;;;31.97;100.00;101605.91;5079040;28;51510;-39
2022/10/02 13:01:54;;;;;;;;;16.25;10.75;;;;;32.05;100.00;101587.91;5074962;27;51140;-40
2022/10/02 13:05:00;;;;;;;;;7.75;6.00;;;;;31.93;100.00;101585.16;5078768;28;51210;-38
2022/10/02 13:08:21;;;;;;;;;6.00;6.00;;;;;31.82;100.00;101576.88;5075423;28;51217;-39
2022/10/02 13:11:12;;;;;;;;;9.75;5.00;;;;;31.70;100.00;101566.88;5075674;28;51458;-39
2022/10/02 13:14:25;;;;;;;;;5.75;3.75;;;;;31.49;100.00;101562.06;5078465;27;51190;-39
2022/10/02 13:17:25;;;;;;;;;6.25;6.25;;;;;31.35;100.00;101550.28;5073723;27;51472;-39
2022/10/02 13:20:38;;;;;;;;;4.00;4.00;;;;;31.26;100.00;101547.41;5077557;27;51381;-39
2022/10/02 13:23:32;;;;;;;;;7.50;6.00;;;;;31.11;100.00;101532.97;5078607;28;51169;-38
2022/10/02 13:26:26;;;;;;;;;7.75;4.50;;;;;31.04;100.00;101530.69;5076326;27;51200;-38
2022/10/02 13:29:17;;;;;;;;;6.75;5.00;;;;;30.99;100.00;101532.03;5079347;28;51157;-39
2022/10/02 13:32:30;;;;;;;;;5.00;3.00;;;;;30.90;100.00;101528.16;5077990;28;51139;-39
2022/10/02 13:35:29;;;;;;;;;3.75;3.00;;;;;30.82;100.00;101523.25;5077978;27;51165;-40
2022/10/02 13:38:44;;;;;;;;;4.00;3.50;;;;;30.88;100.00;101530.16;5079124;28;51427;-39
2022/10/02 13:41:53;;;;;;;;;4.75;4.50;;;;;30.91;100.00;101528.03;5078348;28;51164;-40
2022/10/02 13:44:59;;;;;;;;;8.75;7.00;;;;;30.91;100.00;101510.66;5076476;27;51074;-39
2022/10/02 13:47:53;;;;;;;;;6.00;5.50;;;;;30.87;100.00;101506.41;5072134;27;51159;-39
2022/10/02 13:50:59;;;;;;;;;5.50;5.00;;;;;30.96;100.00;101513.03;5074293;28;51046;-39
2022/10/02 13:54:08;;;;;;;;;7.00;5.00;;;;;30.97;100.00;101506.53;5078445;28;51139;-39
2022/10/02 13:57:07;;;;;;;;;5.25;4.50;;;;;30.95;100.00;101503.94;5077911;28;51266;-39
2022/10/02 14:00:27;;;;;;;;;11.50;9.50;;;;;30.93;100.00;101497.66;5076077;28;51238;-39
2022/10/02 14:03:18;;;;;;;;;4.75;4.75;;;;;30.88;100.00;101492.53;5078315;27;51159;-39
2022/10/02 14:06:24;;;;;;;;;8.25;5.00;;;;;30.84;100.00;101485.56;5078701;27;51138;-38
2022/10/02 14:09:15;;;;;;;;;5.50;3.75;;;;;30.85;100.00;101497.41;5079989;27;51562;-39
2022/10/02 14:12:06;;;;;;;;;8.50;5.25;;;;;30.86;100.00;101493.66;5077569;27;51286;-40
2022/10/02 14:15:22;;;;;;;;;7.00;5.25;;;;;30.76;100.00;101486.16;5081942;27;51080;-39
2022/10/02 14:18:27;;;;;;;;;3.00;3.00;;;;;30.66;100.00;101479.63;5078291;27;51253;-40
2022/10/02 14:21:27;;;;;;;;;5.00;5.00;;;;;30.63;100.00;101485.34;5081054;27;51473;-39
2022/10/02 14:24:58;;;;;;;;;5.00;3.75;;;;;30.61;100.00;101459.84;5082304;27;51465;-40
2022/10/02 14:28:07;;;;;;;;;9.25;6.25;;;;;30.55;100.00;101457.59;5078868;27;51167;-40
2022/10/02 14:31:16;;;;;;;;;3.50;3.50;;;;;30.54;100.00;101459.44;5081160;27;50999;-39
2022/10/02 14:34:15;;;;;;;;;4.75;3.00;;;;;30.48;100.00;101445.31;5078399;27;51414;-39
2022/10/02 14:37:28;;;;;;;;;6.25;2.00;;;;;30.41;100.00;101448.50;5081595;27;51096;-39
2022/10/02 14:40:18;;;;;;;;;5.00;4.50;;;;;30.29;100.00;101450.34;5064761;27;51360;-39
2022/10/02 14:43:24;;;;;;;;;6.75;5.25;;;;;30.24;100.00;101448.94;5080673;27;51109;-39
2022/10/02 14:46:18;;;;;;;;;5.25;5.25;;;;;30.34;100.00;101450.00;5080971;27;51049;-39
2022/10/02 14:49:34;;;;;;;;;11.00;7.50;;;;;30.51;100.00;101445.06;5079140;27;51571;-39
2022/10/02 14:52:31;;;;;;;;;6.00;4.50;;;;;30.57;100.00;101430.91;5076551;27;51497;-39
2022/10/02 14:55:40;;;;;;;;;7.00;4.25;;;;;30.65;100.00;101428.41;5079377;27;51042;-40